createdAt,value
2018-08-31T00:00:30.035Z,81.87
2018-08-31T00:01:29.779Z,81.87
2018-08-31T00:02:29.778Z,81.87
2018-08-31T00:03:30.031Z,81.78
2018-08-31T00:04:30.031Z,82.26
2018-08-31T00:05:30.039Z,81.97
2018-08-31T00:06:30.032Z,81.87
2018-08-31T00:07:30.031Z,81.59
2018-08-31T00:08:30.033Z,81.68
2018-08-31T00:09:29.800Z,81.49
2018-08-31T00:10:30.093Z,81.3
2018-08-31T00:11:29.787Z,81.49
2018-08-31T00:12:30.035Z,81.49
2018-08-31T00:13:29.780Z,81.59
2018-08-31T00:14:29.781Z,81.49
2018-08-31T00:15:30.037Z,81.3
2018-08-31T00:16:29.781Z,81.59
2018-08-31T00:17:30.031Z,81.59
2018-08-31T00:18:30.034Z,82.16
2018-08-31T00:19:29.787Z,81.78
2018-08-31T00:20:30.034Z,81.68
2018-08-31T00:21:29.786Z,81.4
2018-08-31T00:22:30.043Z,81.59
2018-08-31T00:23:29.802Z,81.3
2018-08-31T00:24:29.793Z,81.2
2018-08-31T00:25:30.072Z,81.1
2018-08-31T00:26:30.040Z,81.01
2018-08-31T00:27:30.050Z,81.3
2018-08-31T00:28:30.035Z,81.3
2018-08-31T00:29:30.042Z,81.2
2018-08-31T00:30:30.052Z,81.4
2018-08-31T00:31:30.043Z,81.59
2018-08-31T00:32:29.798Z,81.59
2018-08-31T00:33:29.806Z,81.49
2018-08-31T00:34:29.799Z,81.4
2018-08-31T00:35:30.047Z,81.4
2018-08-31T00:36:30.045Z,81.3
2018-08-31T00:37:30.058Z,81.49
2018-08-31T00:38:29.796Z,81.4
2018-08-31T00:39:30.047Z,81.49
2018-08-31T00:40:30.149Z,81.59
2018-08-31T00:41:30.058Z,81.2
2018-08-31T00:42:30.063Z,81.2
2018-08-31T00:43:30.051Z,81.4
2018-08-31T00:44:30.057Z,81.3
2018-08-31T00:45:30.057Z,81.59
2018-08-31T00:46:30.049Z,81.68
2018-08-31T00:47:30.043Z,81.4
2018-08-31T00:48:30.048Z,81.45
2018-08-31T00:49:29.816Z,81.45
2018-08-31T00:50:30.080Z,81.84
2018-08-31T00:51:29.803Z,82.03
2018-08-31T00:52:29.791Z,81.74
2018-08-31T00:53:30.049Z,81.74
2018-08-31T00:54:29.806Z,82.21
2018-08-31T00:55:30.057Z,82.21
2018-08-31T00:56:29.821Z,82.16
2018-08-31T00:57:30.055Z,82.03
2018-08-31T00:58:30.071Z,82.21
2018-08-31T00:59:29.810Z,82.21
2018-08-31T01:00:29.829Z,82.12
2018-08-31T01:01:30.155Z,82.41
2018-08-31T01:02:30.053Z,82.16
2018-08-31T01:03:29.815Z,81.84
2018-08-31T01:04:30.078Z,81.68
2018-08-31T01:05:30.051Z,81.87
2018-08-31T01:06:29.823Z,82.26
2018-08-31T01:07:30.058Z,82.12
2018-08-31T01:08:29.828Z,81.93
2018-08-31T01:09:29.812Z,82.31
2018-08-31T01:10:29.849Z,82.21
2018-08-31T01:11:29.829Z,82.79
2018-08-31T01:12:30.059Z,82.6
2018-08-31T01:13:30.053Z,82.51
2018-08-31T01:14:30.058Z,82.51
2018-08-31T01:15:30.081Z,82.51
2018-08-31T01:16:29.827Z,81.84
2018-08-31T01:17:29.810Z,82.12
2018-08-31T01:18:30.067Z,82.31
2018-08-31T01:19:30.059Z,82.41
2018-08-31T01:20:30.062Z,82.41
2018-08-31T01:21:29.862Z,81.93
2018-08-31T01:22:29.888Z,82.31
2018-08-31T01:23:30.061Z,82.12
2018-08-31T01:24:29.821Z,82.51
2018-08-31T01:25:30.066Z,82.41
2018-08-31T01:26:30.062Z,82.31
2018-08-31T01:27:30.062Z,82.6
2018-08-31T01:28:29.816Z,82.21
2018-08-31T01:29:30.076Z,82.03
2018-08-31T01:30:30.078Z,82.12
2018-08-31T01:31:30.070Z,81.64
2018-08-31T01:32:30.063Z,81.54
2018-08-31T01:33:30.071Z,81.26
2018-08-31T01:34:30.068Z,81.54
2018-08-31T01:35:30.101Z,81.45
2018-08-31T01:36:30.067Z,81.64
2018-08-31T01:37:30.068Z,82.12
2018-08-31T01:38:30.055Z,81.84
2018-08-31T01:39:30.083Z,81.64
2018-08-31T01:40:30.061Z,81.16
2018-08-31T01:41:29.819Z,81.26
2018-08-31T01:42:30.104Z,81.16
2018-08-31T01:43:30.062Z,81.35
2018-08-31T01:44:30.067Z,81.54
2018-08-31T01:45:30.124Z,81.35
2018-08-31T01:46:30.061Z,81.45
2018-08-31T01:47:30.052Z,81.35
2018-08-31T01:48:29.826Z,81.54
2018-08-31T01:49:29.818Z,81.26
2018-08-31T01:50:29.814Z,81.07
2018-08-31T01:51:30.058Z,81.07
2018-08-31T01:52:30.069Z,80.97
2018-08-31T01:53:29.896Z,81.26
2018-08-31T01:54:29.818Z,81.26
2018-08-31T01:55:29.813Z,81.26
2018-08-31T01:56:30.107Z,80.87
2018-08-31T01:57:29.820Z,81.26
2018-08-31T01:58:29.817Z,81.74
2018-08-31T01:59:29.830Z,81.54
2018-08-31T02:00:30.058Z,82.12
2018-08-31T02:01:30.069Z,81.26
2018-08-31T02:02:29.823Z,80.68
2018-08-31T02:03:30.058Z,80.68
2018-08-31T02:04:29.831Z,80.87
2018-08-31T02:05:29.817Z,81.45
2018-08-31T02:06:29.823Z,81.54
2018-08-31T02:07:30.057Z,81.16
2018-08-31T02:08:30.060Z,81.54
2018-08-31T02:09:30.062Z,81.35
2018-08-31T02:10:30.063Z,81.74
2018-08-31T02:11:30.055Z,82.41
2018-08-31T02:12:30.060Z,82.89
2018-08-31T02:13:29.806Z,82.98
2018-08-31T02:14:30.063Z,83.18
2018-08-31T02:15:30.064Z,83.27
2018-08-31T02:16:30.060Z,83.37
2018-08-31T02:17:29.814Z,84.04
2018-08-31T02:18:29.802Z,84.42
2018-08-31T02:19:30.060Z,83.47
2018-08-31T02:20:29.807Z,83.85
2018-08-31T02:21:30.063Z,83.47
2018-08-31T02:22:30.065Z,82.27
2018-08-31T02:23:30.070Z,82.6
2018-08-31T02:24:30.060Z,81.89
2018-08-31T02:25:30.069Z,82.37
2018-08-31T02:26:29.807Z,82.75
2018-08-31T02:27:30.065Z,82.98
2018-08-31T02:28:30.073Z,83.71
2018-08-31T02:29:30.061Z,84.04
2018-08-31T02:30:30.057Z,83.27
2018-08-31T02:31:29.822Z,83.18
2018-08-31T02:32:30.913Z,83.33
2018-08-31T02:33:30.059Z,83.94
2018-08-31T02:34:29.812Z,84.91
2018-08-31T02:35:29.833Z,85.15
2018-08-31T02:36:30.064Z,84.81
2018-08-31T02:37:30.604Z,85.15
2018-08-31T02:38:30.060Z,85.15
2018-08-31T02:39:30.079Z,85.15
2018-08-31T02:40:29.822Z,84.95
2018-08-31T02:41:29.805Z,84.86
2018-08-31T02:42:29.813Z,84.28
2018-08-31T02:43:29.821Z,84.58
2018-08-31T02:44:30.061Z,83.81
2018-08-31T02:45:30.070Z,83.04
2018-08-31T02:46:30.075Z,82.75
2018-08-31T02:47:30.060Z,83.42
2018-08-31T02:48:30.077Z,83.33
2018-08-31T02:49:30.060Z,83.91
2018-08-31T02:50:29.893Z,82.85
2018-08-31T02:51:30.063Z,82.18
2018-08-31T02:52:30.059Z,80.55
2018-08-31T02:53:30.061Z,80.45
2018-08-31T02:54:30.071Z,80.16
2018-08-31T02:55:30.061Z,80.64
2018-08-31T02:56:30.099Z,81.02
2018-08-31T02:57:30.061Z,81.02
2018-08-31T02:58:30.063Z,80.64
2018-08-31T02:59:29.809Z,80.93
2018-08-31T03:00:29.814Z,80.74
2018-08-31T03:01:29.824Z,80.74
2018-08-31T03:02:30.068Z,80.93
2018-08-31T03:03:29.805Z,81.51
2018-08-31T03:04:29.813Z,80.55
2018-08-31T03:05:30.078Z,80.45
2018-08-31T03:06:29.809Z,79.88
2018-08-31T03:07:29.814Z,79.88
2018-08-31T03:08:29.811Z,78.92
2018-08-31T03:09:30.060Z,79.11
2018-08-31T03:10:30.069Z,79.3
2018-08-31T03:11:29.836Z,79.59
2018-08-31T03:12:29.878Z,79.01
2018-08-31T03:13:30.060Z,79.01
2018-08-31T03:14:29.810Z,79.21
2018-08-31T03:15:29.805Z,78.92
2018-08-31T03:16:30.065Z,78.44
2018-08-31T03:17:29.809Z,78.82
2018-08-31T03:18:30.066Z,78.92
2018-08-31T03:19:29.815Z,79.11
2018-08-31T03:20:29.853Z,79.21
2018-08-31T03:21:30.220Z,79.01
2018-08-31T03:22:30.097Z,79.21
2018-08-31T03:23:29.815Z,79.21
2018-08-31T03:24:30.068Z,78.92
2018-08-31T03:25:30.143Z,78.44
2018-08-31T03:26:30.058Z,78.72
2018-08-31T03:27:30.060Z,78.88
2018-08-31T03:28:29.810Z,78.69
2018-08-31T03:29:30.062Z,78.88
2018-08-31T03:30:30.072Z,78.69
2018-08-31T03:31:30.063Z,78.11
2018-08-31T03:32:30.069Z,79.16
2018-08-31T03:33:29.826Z,78.88
2018-08-31T03:34:29.812Z,78.69
2018-08-31T03:35:30.078Z,78.97
2018-08-31T03:36:29.837Z,78.59
2018-08-31T03:37:30.059Z,78.88
2018-08-31T03:38:29.815Z,78.88
2018-08-31T03:39:29.817Z,79.16
2018-08-31T03:40:30.050Z,77.92
2018-08-31T03:41:30.069Z,78.88
2018-08-31T03:42:30.053Z,78.97
2018-08-31T03:43:29.809Z,78.59
2018-08-31T03:44:30.050Z,78.69
2018-08-31T03:45:29.810Z,78.82
2018-08-31T03:46:30.089Z,78.02
2018-08-31T03:47:30.049Z,77.92
2018-08-31T03:48:29.850Z,78.72
2018-08-31T03:49:30.076Z,78.88
2018-08-31T03:50:30.053Z,79.55
2018-08-31T03:51:29.806Z,79.93
2018-08-31T03:52:30.048Z,80.03
2018-08-31T03:53:30.072Z,79.93
2018-08-31T03:54:29.812Z,80.41
2018-08-31T03:55:30.056Z,80.89
2018-08-31T03:56:30.054Z,80.41
2018-08-31T03:57:30.055Z,79.74
2018-08-31T03:58:30.058Z,79.36
2018-08-31T03:59:30.047Z,78.97
2018-08-31T04:00:29.791Z,79.26
2018-08-31T04:01:29.794Z,78.59
2018-08-31T04:02:29.786Z,79.16
2018-08-31T04:03:30.047Z,78.97
2018-08-31T04:04:30.049Z,78.97
2018-08-31T04:05:30.047Z,79.07
2018-08-31T04:06:30.051Z,79.16
2018-08-31T04:07:29.789Z,78.97
2018-08-31T04:08:30.048Z,78.69
2018-08-31T04:09:30.043Z,78.11
2018-08-31T04:10:29.791Z,78.4
2018-08-31T04:11:29.805Z,77.92
2018-08-31T04:12:30.059Z,78.02
2018-08-31T04:13:30.048Z,78.11
2018-08-31T04:14:29.790Z,77.53
2018-08-31T04:15:30.065Z,78.4
2018-08-31T04:16:30.048Z,78.4
2018-08-31T04:17:30.046Z,78.4
2018-08-31T04:18:29.858Z,78.4
2018-08-31T04:19:29.790Z,78.4
2018-08-31T04:20:30.039Z,78.59
2018-08-31T04:21:30.039Z,78.49
2018-08-31T04:22:30.052Z,78.2
2018-08-31T04:23:30.849Z,78.2
2018-08-31T04:24:29.783Z,77.82
2018-08-31T04:25:30.042Z,77.82
2018-08-31T04:26:30.044Z,77.44
2018-08-31T04:27:29.782Z,77.92
2018-08-31T04:28:30.058Z,77.92
2018-08-31T04:29:30.040Z,77.95
2018-08-31T04:30:29.790Z,77.95
2018-08-31T04:31:29.779Z,77.58
2018-08-31T04:32:30.039Z,77.95
2018-08-31T04:33:29.785Z,77.86
2018-08-31T04:34:29.783Z,77.53
2018-08-31T04:35:30.035Z,77.82
2018-08-31T04:36:29.784Z,77.19
2018-08-31T04:37:29.780Z,77.06
2018-08-31T04:38:29.779Z,76.96
2018-08-31T04:39:30.045Z,77.25
2018-08-31T04:40:30.048Z,78.02
2018-08-31T04:41:30.053Z,77.48
2018-08-31T04:42:30.039Z,77.44
2018-08-31T04:43:30.047Z,77.67
2018-08-31T04:44:30.052Z,77.58
2018-08-31T04:45:30.052Z,77.58
2018-08-31T04:46:30.038Z,77.86
2018-08-31T04:47:30.044Z,78.25
2018-08-31T04:48:29.786Z,78.72
2018-08-31T04:49:29.783Z,78.82
2018-08-31T04:50:30.319Z,79.01
2018-08-31T04:51:29.786Z,79.21
2018-08-31T04:52:30.051Z,79.39
2018-08-31T04:53:30.596Z,79.97
2018-08-31T04:54:30.036Z,79.64
2018-08-31T04:55:30.055Z,78.82
2018-08-31T04:56:30.040Z,78.72
2018-08-31T04:57:30.052Z,78.92
2018-08-31T04:58:30.048Z,78.88
2018-08-31T04:59:30.043Z,78.88
2018-08-31T05:00:30.048Z,78.92
2018-08-31T05:01:30.039Z,78.69
2018-08-31T05:02:30.037Z,78.97
2018-08-31T05:03:30.031Z,78.78
2018-08-31T05:04:30.036Z,78.97
2018-08-31T05:05:30.041Z,78.97
2018-08-31T05:06:30.039Z,78.88
2018-08-31T05:07:30.029Z,79.64
2018-08-31T05:08:29.791Z,79.55
2018-08-31T05:09:30.040Z,78.78
2018-08-31T05:10:29.799Z,78.78
2018-08-31T05:11:29.779Z,79.26
2018-08-31T05:12:30.041Z,79.16
2018-08-31T05:13:29.797Z,79.55
2018-08-31T05:14:29.772Z,79.36
2018-08-31T05:15:29.789Z,79.64
2018-08-31T05:16:30.037Z,79.16
2018-08-31T05:17:30.031Z,79.16
2018-08-31T05:18:30.069Z,78.78
2018-08-31T05:19:30.040Z,78.78
2018-08-31T05:20:30.031Z,78.49
2018-08-31T05:21:30.045Z,78.88
2018-08-31T05:22:30.132Z,78.69
2018-08-31T05:23:29.785Z,78.49
2018-08-31T05:24:30.030Z,78.69
2018-08-31T05:25:30.032Z,78.88
2018-08-31T05:26:30.031Z,78.78
2018-08-31T05:27:30.043Z,78.59
2018-08-31T05:28:30.232Z,79.3
2018-08-31T05:29:29.777Z,79.11
2018-08-31T05:30:29.828Z,78.53
2018-08-31T05:31:30.045Z,78.82
2018-08-31T05:32:30.056Z,78.34
2018-08-31T05:33:29.775Z,77.19
2018-08-31T05:34:30.035Z,77.95
2018-08-31T05:35:30.057Z,77.92
2018-08-31T05:36:29.777Z,77.67
2018-08-31T05:37:30.033Z,77.82
2018-08-31T05:38:30.032Z,78.11
2018-08-31T05:39:30.035Z,77.44
2018-08-31T05:40:29.772Z,77.19
2018-08-31T05:41:30.037Z,77.09
2018-08-31T05:42:30.034Z,77.76
2018-08-31T05:43:30.034Z,77.86
2018-08-31T05:44:30.036Z,77.58
2018-08-31T05:45:30.032Z,77.76
2018-08-31T05:46:30.030Z,77.58
2018-08-31T05:47:30.041Z,77.86
2018-08-31T05:48:30.034Z,77.95
2018-08-31T05:49:30.039Z,78.3
2018-08-31T05:50:29.810Z,77.95
2018-08-31T05:51:29.771Z,77.34
2018-08-31T05:52:29.768Z,76.39
2018-08-31T05:53:29.837Z,76.81
2018-08-31T05:54:30.031Z,77.15
2018-08-31T05:55:30.029Z,77
2018-08-31T05:56:30.028Z,77.29
2018-08-31T05:57:30.025Z,76.81
2018-08-31T05:58:30.027Z,76.71
2018-08-31T05:59:30.833Z,77.19
2018-08-31T06:00:30.029Z,76.42
2018-08-31T06:01:30.037Z,76.14
2018-08-31T06:02:30.028Z,76.32
2018-08-31T06:03:29.775Z,76.42
2018-08-31T06:04:29.775Z,76.52
2018-08-31T06:05:29.773Z,76.62
2018-08-31T06:06:29.770Z,76.42
2018-08-31T06:07:30.024Z,76.23
2018-08-31T06:08:30.035Z,76.23
2018-08-31T06:09:30.032Z,76.23
2018-08-31T06:10:30.026Z,76.9
2018-08-31T06:11:29.771Z,76.71
2018-08-31T06:12:29.774Z,76.23
2018-08-31T06:13:30.037Z,75.85
2018-08-31T06:14:30.040Z,75.46
2018-08-31T06:15:30.072Z,74.89
2018-08-31T06:16:30.030Z,75.08
2018-08-31T06:17:30.025Z,75.18
2018-08-31T06:18:30.029Z,75.46
2018-08-31T06:19:29.824Z,75.18
2018-08-31T06:20:29.784Z,75.56
2018-08-31T06:21:30.040Z,75.08
2018-08-31T06:22:30.040Z,75.56
2018-08-31T06:23:29.770Z,75.18
2018-08-31T06:24:30.037Z,75.75
2018-08-31T06:25:30.033Z,75.65
2018-08-31T06:26:29.772Z,76.14
2018-08-31T06:27:30.026Z,75.37
2018-08-31T06:28:30.026Z,75.56
2018-08-31T06:29:29.772Z,75.65
2018-08-31T06:30:30.048Z,75.85
2018-08-31T06:31:30.026Z,75.75
2018-08-31T06:32:29.776Z,76.23
2018-08-31T06:33:29.770Z,75.95
2018-08-31T06:34:30.029Z,75.56
2018-08-31T06:35:30.033Z,75.37
2018-08-31T06:36:29.776Z,75.46
2018-08-31T06:37:30.032Z,74.89
2018-08-31T06:38:30.017Z,75.08
2018-08-31T06:39:29.773Z,75.46
2018-08-31T06:40:30.019Z,75.18
2018-08-31T06:41:30.022Z,75.62
2018-08-31T06:42:29.779Z,75.65
2018-08-31T06:43:30.024Z,75.56
2018-08-31T06:44:30.017Z,75.46
2018-08-31T06:45:29.760Z,74.98
2018-08-31T06:46:30.030Z,74.41
2018-08-31T06:47:30.022Z,74.6
2018-08-31T06:48:30.057Z,75.08
2018-08-31T06:49:30.040Z,74.98
2018-08-31T06:50:30.018Z,74.89
2018-08-31T06:51:30.218Z,75.37
2018-08-31T06:52:30.019Z,75.46
2018-08-31T06:53:30.015Z,75.46
2018-08-31T06:54:29.765Z,75.18
2018-08-31T06:55:30.022Z,75.18
2018-08-31T06:56:29.759Z,76.04
2018-08-31T06:57:29.762Z,76.77
2018-08-31T06:58:29.765Z,78.15
2018-08-31T06:59:29.758Z,77.86
2018-08-31T07:00:30.028Z,77.19
2018-08-31T07:01:30.009Z,77.34
2018-08-31T07:02:30.019Z,77.34
2018-08-31T07:03:30.024Z,76.96
2018-08-31T07:04:30.078Z,77.73
2018-08-31T07:05:29.763Z,77.82
2018-08-31T07:06:29.766Z,77.92
2018-08-31T07:07:30.020Z,78.02
2018-08-31T07:08:30.022Z,78.2
2018-08-31T07:09:30.016Z,78.3
2018-08-31T07:10:30.024Z,78.97
2018-08-31T07:11:30.022Z,78.69
2018-08-31T07:12:29.798Z,79.55
2018-08-31T07:13:30.016Z,80.12
2018-08-31T07:14:30.011Z,79.07
2018-08-31T07:15:30.022Z,78.78
2018-08-31T07:16:29.766Z,79.07
2018-08-31T07:17:30.023Z,78.88
2018-08-31T07:18:30.064Z,79.26
2018-08-31T07:19:29.796Z,79.16
2018-08-31T07:20:29.766Z,78.88
2018-08-31T07:21:30.036Z,78.69
2018-08-31T07:22:30.020Z,78.78
2018-08-31T07:23:29.764Z,78.88
2018-08-31T07:24:29.755Z,78.88
2018-08-31T07:25:29.855Z,79.16
2018-08-31T07:26:30.278Z,79.26
2018-08-31T07:27:30.044Z,79.36
2018-08-31T07:28:29.763Z,78.97
2018-08-31T07:29:30.013Z,78.97
2018-08-31T07:30:29.769Z,78.88
2018-08-31T07:31:29.777Z,79.07
2018-08-31T07:32:30.122Z,79.36
2018-08-31T07:33:30.018Z,79.16
2018-08-31T07:34:29.760Z,79.26
2018-08-31T07:35:29.817Z,79.07
2018-08-31T07:36:29.862Z,79.07
2018-08-31T07:37:30.025Z,79.11
2018-08-31T07:38:30.021Z,79.01
2018-08-31T07:39:30.023Z,79.11
2018-08-31T07:40:30.015Z,79.01
2018-08-31T07:41:29.751Z,78.82
2018-08-31T07:42:29.751Z,79.3
2018-08-31T07:43:29.759Z,79.26
2018-08-31T07:44:30.036Z,79.49
2018-08-31T07:45:30.025Z,79.59
2018-08-31T07:46:30.013Z,80.45
2018-08-31T07:47:29.749Z,80.32
2018-08-31T07:48:29.762Z,80.03
2018-08-31T07:49:29.760Z,80.7
2018-08-31T07:50:29.815Z,80.6
2018-08-31T07:51:30.015Z,80.41
2018-08-31T07:52:29.749Z,80.41
2018-08-31T07:53:30.006Z,80.51
2018-08-31T07:54:30.010Z,81.46
2018-08-31T07:55:30.014Z,82.23
2018-08-31T07:56:30.012Z,82.32
2018-08-31T07:57:30.016Z,82.29
2018-08-31T07:58:30.018Z,83.53
2018-08-31T07:59:29.745Z,84.11
2018-08-31T08:00:30.029Z,84.68
2018-08-31T08:01:29.754Z,84.97
2018-08-31T08:02:30.021Z,85.16
2018-08-31T08:03:30.001Z,85.16
2018-08-31T08:04:30.010Z,84.58
2018-08-31T08:05:30.113Z,85.35
2018-08-31T08:06:30.001Z,85.83
2018-08-31T08:07:30.181Z,85.74
2018-08-31T08:08:29.748Z,86.5
2018-08-31T08:09:29.748Z,86.41
2018-08-31T08:10:30.077Z,86.6
2018-08-31T08:11:30.011Z,86.41
2018-08-31T08:12:30.010Z,88.23
2018-08-31T08:13:29.749Z,88.32
2018-08-31T08:14:30.009Z,88.13
2018-08-31T08:15:29.734Z,88.51
2018-08-31T08:16:29.995Z,89.57
2018-08-31T08:17:29.752Z,89.37
2018-08-31T08:18:30.210Z,90.05
2018-08-31T08:19:30.002Z,90.43
2018-08-31T08:20:30.005Z,90.86
2018-08-31T08:21:29.738Z,91.86
2018-08-31T08:22:30.034Z,92.87
2018-08-31T08:23:30.000Z,94.4
2018-08-31T08:24:29.992Z,92.21
2018-08-31T08:25:30.037Z,92.92
2018-08-31T08:26:29.730Z,93.54
2018-08-31T08:27:30.005Z,94.98
2018-08-31T08:28:30.249Z,95.17
2018-08-31T08:29:29.731Z,95.7
2018-08-31T08:30:29.775Z,95.51
2018-08-31T08:31:30.005Z,96.27
2018-08-31T08:32:30.003Z,95.79
2018-08-31T08:33:29.730Z,96.56
2018-08-31T08:34:29.735Z,97.04
2018-08-31T08:35:30.016Z,97.23
2018-08-31T08:36:29.731Z,98
2018-08-31T08:37:30.014Z,98.1
2018-08-31T08:38:29.998Z,98.19
2018-08-31T08:39:29.977Z,98.57
2018-08-31T08:40:29.988Z,98.86
2018-08-31T08:41:29.784Z,99.48
2018-08-31T08:42:29.764Z,99.99
2018-08-31T08:43:29.976Z,99.99
2018-08-31T08:44:29.724Z,99.99
2018-08-31T08:45:29.980Z,99.99
2018-08-31T08:46:29.988Z,99.99
2018-08-31T08:47:29.984Z,99.99
2018-08-31T08:48:30.156Z,99.99
2018-08-31T08:49:29.737Z,99.99
2018-08-31T08:50:29.718Z,99.99
2018-08-31T08:51:29.973Z,99.99
2018-08-31T08:52:29.717Z,99.99
2018-08-31T08:53:29.968Z,99.99
2018-08-31T08:54:29.983Z,99.99
2018-08-31T08:55:29.978Z,99.99
2018-08-31T08:56:29.715Z,99.99
2018-08-31T08:57:29.990Z,99.99
2018-08-31T08:58:29.975Z,99.99
2018-08-31T08:59:29.977Z,99.99
2018-08-31T09:00:29.973Z,99.99
2018-08-31T09:01:29.707Z,99.99
2018-08-31T09:02:29.971Z,99.99
2018-08-31T09:03:29.971Z,99.99
2018-08-31T09:04:29.975Z,99.99
2018-08-31T09:05:30.139Z,99.99
2018-08-31T09:06:29.961Z,99.99
2018-08-31T09:07:29.984Z,99.99
2018-08-31T09:08:29.705Z,99.99
2018-08-31T09:09:29.961Z,99.99
2018-08-31T09:10:30.036Z,99.99
2018-08-31T09:11:29.971Z,99.99
2018-08-31T09:12:30.223Z,99.99
2018-08-31T09:13:29.987Z,99.99
2018-08-31T09:14:29.979Z,99.99
2018-08-31T09:15:30.059Z,99.99
2018-08-31T09:16:29.963Z,99.99
2018-08-31T09:17:29.965Z,99.99
2018-08-31T09:18:29.922Z,99.99
2018-08-31T09:19:29.686Z,99.99
2018-08-31T09:20:30.039Z,99.99
2018-08-31T09:21:29.949Z,99.99
2018-08-31T09:22:29.967Z,99.99
2018-08-31T09:23:29.701Z,99.99
2018-08-31T09:24:30.005Z,99.99
2018-08-31T09:25:30.029Z,99.99
2018-08-31T09:26:29.964Z,99.99
2018-08-31T09:27:29.726Z,99.99
2018-08-31T09:28:29.944Z,99.99
2018-08-31T09:29:29.708Z,99.99
2018-08-31T09:30:29.969Z,99.99
2018-08-31T09:31:29.699Z,99.99
2018-08-31T09:32:30.100Z,99.99
2018-08-31T09:33:29.807Z,99.99
2018-08-31T09:34:29.706Z,99.99
2018-08-31T09:35:29.948Z,99.99
2018-08-31T09:36:29.942Z,99.99
2018-08-31T09:37:29.974Z,99.99
2018-08-31T09:38:30.152Z,99.99
2018-08-31T09:39:29.704Z,99.99
2018-08-31T09:40:29.949Z,99.99
2018-08-31T09:41:29.704Z,99.99
2018-08-31T09:42:29.985Z,99.99
2018-08-31T09:43:29.709Z,99.99
2018-08-31T09:44:29.975Z,99.99
2018-08-31T09:45:29.948Z,99.99
2018-08-31T09:46:29.704Z,99.99
2018-08-31T09:47:29.977Z,99.99
2018-08-31T09:48:29.690Z,99.99
2018-08-31T09:49:30.017Z,99.99
2018-08-31T09:50:29.955Z,99.99
2018-08-31T09:51:29.686Z,99.99
2018-08-31T09:52:29.939Z,99.99
2018-08-31T09:53:29.965Z,99.99
2018-08-31T09:54:29.942Z,99.99
2018-08-31T09:55:29.686Z,99.99
2018-08-31T09:56:29.944Z,99.99
2018-08-31T09:57:30.161Z,99.99
2018-08-31T09:58:29.942Z,99.99
2018-08-31T09:59:29.961Z,99.99
2018-08-31T10:00:29.683Z,99.99
2018-08-31T10:01:29.952Z,99.99
2018-08-31T10:02:29.688Z,99.99
2018-08-31T10:03:29.942Z,99.99
2018-08-31T10:04:29.940Z,99.99
2018-08-31T10:05:29.711Z,99.99
2018-08-31T10:06:29.950Z,99.99
2018-08-31T10:07:29.687Z,99.99
2018-08-31T10:08:29.952Z,99.99
2018-08-31T10:09:29.690Z,99.99
2018-08-31T10:10:30.014Z,99.99
2018-08-31T10:11:29.964Z,99.99
2018-08-31T10:12:29.943Z,99.99
2018-08-31T10:13:30.180Z,99.99
2018-08-31T10:14:29.943Z,99.99
2018-08-31T10:15:29.945Z,99.99
2018-08-31T10:16:29.689Z,99.99
2018-08-31T10:17:29.947Z,99.99
2018-08-31T10:18:29.697Z,99.99
2018-08-31T10:19:29.936Z,99.99
2018-08-31T10:20:30.017Z,99.99
2018-08-31T10:21:29.954Z,99.99
2018-08-31T10:22:29.681Z,99.99
2018-08-31T10:23:29.939Z,99.99
2018-08-31T10:24:29.944Z,99.99
2018-08-31T10:25:29.681Z,99.99
2018-08-31T10:26:29.949Z,99.99
2018-08-31T10:27:29.951Z,99.99
2018-08-31T10:28:29.677Z,99.99
2018-08-31T10:29:29.677Z,99.99
2018-08-31T10:30:29.751Z,99.99
2018-08-31T10:31:29.962Z,99.99
2018-08-31T10:32:29.929Z,99.99
2018-08-31T10:33:29.680Z,99.99
2018-08-31T10:34:29.930Z,99.99
2018-08-31T10:35:29.946Z,99.99
2018-08-31T10:36:29.931Z,99.99
2018-08-31T10:37:29.681Z,99.99
2018-08-31T10:38:29.939Z,99.99
2018-08-31T10:39:29.976Z,99.99
2018-08-31T10:40:29.930Z,99.99
2018-08-31T10:41:29.670Z,99.99
2018-08-31T10:42:29.956Z,99.99
2018-08-31T10:43:29.679Z,99.99
2018-08-31T10:44:29.674Z,99.99
2018-08-31T10:45:29.745Z,99.99
2018-08-31T10:46:30.109Z,99.99
2018-08-31T10:47:29.935Z,99.99
2018-08-31T10:48:29.686Z,99.99
2018-08-31T10:49:29.676Z,99.99
2018-08-31T10:50:29.961Z,99.99
2018-08-31T10:51:29.929Z,99.99
2018-08-31T10:52:29.929Z,99.99
2018-08-31T10:53:29.926Z,99.99
2018-08-31T10:54:29.922Z,99.99
2018-08-31T10:55:29.989Z,99.99
2018-08-31T10:56:29.934Z,99.99
2018-08-31T10:57:29.932Z,99.99
2018-08-31T10:58:29.669Z,99.99
2018-08-31T10:59:29.686Z,99.99
2018-08-31T11:00:30.028Z,99.99
2018-08-31T11:01:29.928Z,99.99
2018-08-31T11:02:29.938Z,99.99
2018-08-31T11:03:29.678Z,99.99
2018-08-31T11:04:29.927Z,99.99
2018-08-31T11:05:29.672Z,99.99
2018-08-31T11:06:29.928Z,99.99
2018-08-31T11:07:29.932Z,99.99
2018-08-31T11:08:29.670Z,99.99
2018-08-31T11:09:29.942Z,99.99
2018-08-31T11:10:29.716Z,99.99
2018-08-31T11:11:29.679Z,99.99
2018-08-31T11:12:30.047Z,99.99
2018-08-31T11:13:29.927Z,99.99
2018-08-31T11:14:29.929Z,99.99
2018-08-31T11:15:29.708Z,99.99
2018-08-31T11:16:29.925Z,99.99
2018-08-31T11:17:29.671Z,99.99
2018-08-31T11:18:29.936Z,99.99
2018-08-31T11:19:29.668Z,99.99
2018-08-31T11:20:29.689Z,99.99
2018-08-31T11:21:29.927Z,99.99
2018-08-31T11:22:29.673Z,99.99
2018-08-31T11:23:29.935Z,99.99
2018-08-31T11:24:29.944Z,99.99
2018-08-31T11:25:29.933Z,99.99
2018-08-31T11:26:29.935Z,99.99
2018-08-31T11:27:29.673Z,99.99
2018-08-31T11:28:29.674Z,99.99
2018-08-31T11:29:29.945Z,99.99
2018-08-31T11:30:29.979Z,99.99
2018-08-31T11:31:29.942Z,99.99
2018-08-31T11:32:29.673Z,99.99
2018-08-31T11:33:29.926Z,99.99
2018-08-31T11:34:29.688Z,99.99
2018-08-31T11:35:30.010Z,99.99
2018-08-31T11:36:29.944Z,99.99
2018-08-31T11:37:29.937Z,99.99
2018-08-31T11:38:29.678Z,99.99
2018-08-31T11:39:30.040Z,99.99
2018-08-31T11:40:30.034Z,99.99
2018-08-31T11:41:29.928Z,99.99
2018-08-31T11:42:29.688Z,99.99
2018-08-31T11:43:30.167Z,99.99
2018-08-31T11:44:29.943Z,99.99
2018-08-31T11:45:30.032Z,99.99
2018-08-31T11:46:29.683Z,99.99
2018-08-31T11:47:29.933Z,99.99
2018-08-31T11:48:29.931Z,99.99
2018-08-31T11:49:29.946Z,99.99
2018-08-31T11:50:29.962Z,99.99
2018-08-31T11:51:29.942Z,99.99
2018-08-31T11:52:29.944Z,99.99
2018-08-31T11:53:29.966Z,99.99
2018-08-31T11:54:29.985Z,99.99
2018-08-31T11:55:29.987Z,99.99
2018-08-31T11:56:29.941Z,99.99
2018-08-31T11:57:29.739Z,99.99
2018-08-31T11:58:29.696Z,99.99
2018-08-31T11:59:29.937Z,99.99
2018-08-31T12:00:29.796Z,99.99
2018-08-31T12:01:30.266Z,99.99
2018-08-31T12:02:29.690Z,99.99
2018-08-31T12:03:29.686Z,99.99
2018-08-31T12:04:29.946Z,99.99
2018-08-31T12:05:29.958Z,99.99
2018-08-31T12:06:29.946Z,99.99
2018-08-31T12:07:29.952Z,99.99
2018-08-31T12:08:29.714Z,99.99
2018-08-31T12:09:29.965Z,99.99
2018-08-31T12:10:30.063Z,99.99
2018-08-31T12:11:29.950Z,99.99
2018-08-31T12:12:29.952Z,99.99
2018-08-31T12:13:29.950Z,99.99
2018-08-31T12:14:29.706Z,99.99
2018-08-31T12:15:29.950Z,99.99
2018-08-31T12:16:29.693Z,99.99
2018-08-31T12:17:29.953Z,99.99
2018-08-31T12:18:29.699Z,99.99
2018-08-31T12:19:29.947Z,99.99
2018-08-31T12:20:29.946Z,99.99
2018-08-31T12:21:29.695Z,99.99
2018-08-31T12:22:29.962Z,99.99
2018-08-31T12:23:29.979Z,99.99
2018-08-31T12:24:29.700Z,99.99
2018-08-31T12:25:30.036Z,99.99
2018-08-31T12:26:29.700Z,99.99
2018-08-31T12:27:29.956Z,99.99
2018-08-31T12:28:29.716Z,98.72
2018-08-31T12:29:29.960Z,98.82
2018-08-31T12:30:29.820Z,98.14
2018-08-31T12:31:29.701Z,98.33
2018-08-31T12:32:29.705Z,99.49
2018-08-31T12:33:29.964Z,98.82
2018-08-31T12:34:29.706Z,97.52
2018-08-31T12:35:30.026Z,96.75
2018-08-31T12:36:29.962Z,96.85
2018-08-31T12:37:29.715Z,99.44
2018-08-31T12:38:29.705Z,99.73
2018-08-31T12:39:29.969Z,99.34
2018-08-31T12:40:29.973Z,99.99
2018-08-31T12:41:29.963Z,99.99
2018-08-31T12:42:29.708Z,99.99
2018-08-31T12:43:29.966Z,99.99
2018-08-31T12:44:29.968Z,99.99
2018-08-31T12:45:30.062Z,99.99
2018-08-31T12:46:29.971Z,99.99
2018-08-31T12:47:29.965Z,99.99
2018-08-31T12:48:29.969Z,99.99
2018-08-31T12:49:29.713Z,99.99
2018-08-31T12:50:29.716Z,99.99
2018-08-31T12:51:29.978Z,99.99
2018-08-31T12:52:29.968Z,99.99
2018-08-31T12:53:29.969Z,99.99
2018-08-31T12:54:29.968Z,99.99